Stations météo

réclame
Mon MeteoGroup
Chiavari, Italie (16123): Température de l'air & dewpoint: 14.06.2018 07:00:00 - 20.06.2018 07:00:00 (CEST)Chiavari, Italie (16123): Vitesse du vent: 14.06.2018 07:00:00 - 20.06.2018 07:00:00 (CEST)Chiavari, Italie (16123): Direction du vent: 14.06.2018 07:00:00 - 20.06.2018 07:00:00 (CEST)Chiavari, Italie (16123): reduced air pressure: 14.06.2018 07:00:00 - 20.06.2018 07:00:00 (CEST)Chiavari, Italie (16123): Quantités de précipitations: 14.06.2018 07:00:00 - 20.06.2018 07:00:00 (CEST)
Date & Time tt [°C] td [°C] ff [km/h] ff [knt] dd ppp [hPa] rr [mm]
20.06.2018 07:00:00 - - - - - - -
20.06.2018 06:00:00 21,2 12,6 15 8 NNE 1018,8 -
20.06.2018 05:00:00 21,0 13,4 9 5 NE 1018,7 -
20.06.2018 04:00:00 21,0 13,8 13 7 NE 1018,8 -
20.06.2018 03:00:00 21,8 14,1 11 6 NNE 1018,9 -
20.06.2018 02:00:00 22,5 14,5 8 4 NE 1018,9 -
20.06.2018 01:00:00 22,3 14,1 9 5 NNE 1018,6 -
20.06.2018 00:00:00 22,6 15,4 16 9 NNE 1018,2 -
19.06.2018 23:00:00 23,0 16,5 15 8 NE 1018,0 -
19.06.2018 22:00:00 24,3 17,9 11 6 NE 1017,4 -
19.06.2018 21:00:00 26,1 16,0 9 5 NNE 1016,9 -
19.06.2018 20:00:00 28,9 14,3 2 1 SW 1016,8 0,0
19.06.2018 19:00:00 28,1 13,6 5 3 SSW 1017,0 -
19.06.2018 18:00:00 29,6 12,1 11 6 SW 1017,2 -
19.06.2018 17:00:00 29,3 10,4 8 4 SW 1017,3 -
19.06.2018 16:00:00 28,2 11,7 9 5 SSE 1017,8 -
19.06.2018 15:00:00 30,5 10,5 13 7 SW 1018,0 -
19.06.2018 14:00:00 30,3 10,8 13 7 SW 1018,3 0,0
19.06.2018 13:00:00 28,8 13,8 9 5 S 1018,4 -
19.06.2018 12:00:00 29,1 14,5 9 5 S 1018,5 -
19.06.2018 11:00:00 27,2 14,5 4 2 E 1018,6 -
19.06.2018 10:00:00 24,6 15,4 11 6 ENE 1018,8 -
19.06.2018 09:00:00 21,7 15,7 13 7 NNE 1018,8 -
19.06.2018 08:00:00 20,2 14,5 16 9 NE 1018,6 0,0
19.06.2018 07:00:00 19,1 14,5 15 8 NE 1018,3 -
19.06.2018 06:00:00 19,0 15,2 15 8 NE 1018,1 -
19.06.2018 05:00:00 19,5 15,3 15 8 NNE 1017,6 -
19.06.2018 04:00:00 19,8 16,2 15 8 ENE 1017,4 -
19.06.2018 03:00:00 20,2 16,2 13 7 E 1017,3 -
19.06.2018 02:00:00 20,1 17,2 15 8 NE 1017,3 0,0
19.06.2018 01:00:00 - - - - - - -
19.06.2018 00:00:00 21,2 17,9 15 8 ENE 1016,9 -
18.06.2018 23:00:00 22,0 19,1 9 5 NNE 1016,6 -
18.06.2018 22:00:00 23,6 20,5 9 5 NE 1015,9 -
18.06.2018 21:00:00 25,5 18,9 4 2 N 1015,2 -
18.06.2018 20:00:00 26,3 17,9 8 4 SW 1014,6 -
18.06.2018 19:00:00 27,3 13,2 5 3 S 1014,2 -
18.06.2018 18:00:00 28,0 13,8 9 5 WSW 1014,3 -
18.06.2018 17:00:00 27,1 18,6 9 5 NNE 1014,4 -
18.06.2018 16:00:00 24,2 19,6 11 6 N 1015,2 -
18.06.2018 15:00:00 21,8 18,9 13 7 NNE 1015,9 -
18.06.2018 14:00:00 23,0 17,8 8 4 NE 1016,2 -
18.06.2018 13:00:00 25,6 17,2 11 6 SSW 1015,4 -
18.06.2018 12:00:00 24,9 19,2 9 5 S 1015,2 -
18.06.2018 11:00:00 24,7 18,3 8 4 SSW 1015,2 -
18.06.2018 10:00:00 23,3 18,8 4 2 SSE 1014,9 -
18.06.2018 09:00:00 - - - - - - -
18.06.2018 08:00:00 20,1 16,9 8 4 ENE 1014,5 0,0
18.06.2018 07:00:00 19,2 16,5 9 5 E 1014,3 -
18.06.2018 06:00:00 19,2 16,5 11 6 NNE 1014,1 -
18.06.2018 05:00:00 19,1 16,6 11 6 ENE 1013,8 -
18.06.2018 04:00:00 19,1 16,8 13 7 NNE 1013,8 -
18.06.2018 03:00:00 19,4 16,7 9 5 NE 1013,9 -
18.06.2018 02:00:00 19,8 17,1 5 3 NNE 1014,2 0,0
18.06.2018 01:00:00 19,8 17,1 8 4 NE 1014,2 -
18.06.2018 00:00:00 20,5 17,4 8 4 NE 1014,6 -
17.06.2018 23:00:00 21,3 17,8 5 3 NE 1014,2 -
17.06.2018 22:00:00 22,6 18,3 4 2 N 1013,6 -
17.06.2018 21:00:00 23,8 19,0 2 1 W 1013,2 -
17.06.2018 20:00:00 24,2 19,0 5 3 SW 1013,1 0,0
17.06.2018 19:00:00 24,3 19,7 5 3 SSW 1013,0 -
17.06.2018 18:00:00 24,4 20,0 13 7 SSW 1013,3 -
17.06.2018 17:00:00 25,0 19,3 9 5 SSW 1013,4 -
17.06.2018 16:00:00 24,9 17,3 9 5 SSW 1013,7 -
17.06.2018 15:00:00 25,1 17,7 9 5 S 1014,0 -
17.06.2018 14:00:00 24,8 17,2 11 6 SSW 1014,3 0,0
17.06.2018 13:00:00 24,9 15,2 9 5 SSW 1014,5 -
17.06.2018 12:00:00 24,6 15,4 5 3 SSW 1014,4 -
17.06.2018 11:00:00 23,5 17,4 8 4 SW 1014,2 -
17.06.2018 10:00:00 23,7 17,4 4 2 WSW 1013,9 -
17.06.2018 09:00:00 20,3 14,1 8 4 NE 1013,8 -
17.06.2018 08:00:00 17,8 14,0 11 6 E 1013,9 0,0
17.06.2018 07:00:00 16,3 13,5 11 6 NE 1013,6 -
17.06.2018 06:00:00 16,4 13,2 11 6 NE 1013,1 -
17.06.2018 05:00:00 16,6 13,2 13 7 NE 1012,9 -
17.06.2018 04:00:00 17,0 13,3 13 7 NNE 1013,1 -
17.06.2018 03:00:00 17,2 13,4 15 8 NE 1013,1 -
17.06.2018 02:00:00 17,9 13,9 13 7 NE 1013,1 0,0
17.06.2018 01:00:00 18,7 14,3 13 7 NE 1013,0 -
17.06.2018 00:00:00 19,5 14,2 13 7 NE 1012,9 -
16.06.2018 23:00:00 20,8 14,1 9 5 NE 1012,5 -
16.06.2018 22:00:00 21,5 14,1 9 5 NNE 1012,2 -
16.06.2018 21:00:00 24,1 12,0 5 3 NNE 1011,7 -
16.06.2018 20:00:00 25,4 11,2 5 3 S 1011,5 0,0
16.06.2018 19:00:00 25,3 11,4 11 6 SSW 1011,4 -
16.06.2018 18:00:00 25,3 12,5 11 6 SSW 1011,6 -
16.06.2018 17:00:00 24,9 14,3 9 5 SSW 1011,8 -
16.06.2018 16:00:00 25,3 13,7 9 5 S 1011,9 -
16.06.2018 15:00:00 25,6 13,4 11 6 S 1012,1 -
16.06.2018 14:00:00 25,4 9,2 11 6 S 1012,2 0,0
16.06.2018 13:00:00 25,4 9,6 11 6 S 1012,2 -
16.06.2018 12:00:00 25,3 9,1 8 4 S 1012,1 -
16.06.2018 11:00:00 24,7 9,4 8 4 S 1012,3 -
16.06.2018 10:00:00 23,7 11,4 2 1 N 1012,3 -
16.06.2018 09:00:00 - - - - - - -
16.06.2018 08:00:00 18,4 12,3 11 6 NNE 1012,4 0,0
16.06.2018 07:00:00 17,5 11,9 11 6 ENE 1012,1 -
16.06.2018 06:00:00 18,2 11,2 13 7 NE 1012,0 -
16.06.2018 05:00:00 18,6 11,4 11 6 ENE 1011,9 -
16.06.2018 04:00:00 18,3 11,8 11 6 NE 1012,0 -
16.06.2018 03:00:00 18,0 13,4 11 6 ENE 1012,1 -
16.06.2018 02:00:00 17,8 13,2 8 4 ENE 1012,1 0,0
16.06.2018 01:00:00 18,3 13,1 8 4 ENE 1012,1 -
16.06.2018 00:00:00 19,0 15,4 13 7 NNE 1011,5 -
15.06.2018 23:00:00 20,4 16,0 9 5 NNE 1011,4 -
15.06.2018 22:00:00 21,3 17,4 4 2 NNE 1010,9 -
15.06.2018 21:00:00 23,4 15,9 2 1 SSW 1010,4 -
15.06.2018 20:00:00 24,1 15,0 5 3 S 1010,1 0,0
15.06.2018 19:00:00 24,2 16,9 9 5 SSW 1009,9 -
15.06.2018 18:00:00 24,4 16,8 13 7 S 1009,9 -
15.06.2018 17:00:00 24,7 16,6 9 5 SSE 1009,9 -
15.06.2018 16:00:00 24,9 18,0 9 5 SSW 1010,1 -
15.06.2018 15:00:00 25,6 14,3 9 5 SW 1010,2 -
15.06.2018 14:00:00 24,9 14,3 9 5 SW 1010,4 0,0
15.06.2018 13:00:00 24,0 18,6 9 5 SSW 1010,7 -
15.06.2018 12:00:00 23,6 18,0 11 6 SSW 1010,7 -
15.06.2018 11:00:00 23,7 16,7 8 4 SSW 1010,7 -
15.06.2018 10:00:00 21,6 14,7 4 2 N 1010,9 -
15.06.2018 09:00:00 20,1 15,0 8 4 NNE 1010,6 -
15.06.2018 08:00:00 18,8 14,2 9 5 NE 1010,1 0,0
15.06.2018 07:00:00 18,4 13,6 9 5 NE 1009,7 -
15.06.2018 06:00:00 18,2 14,2 8 4 NE 1009,5 -
15.06.2018 05:00:00 18,0 13,6 11 6 N 1009,1 -
15.06.2018 04:00:00 18,1 13,9 9 5 NE 1009,3 -
15.06.2018 03:00:00 18,2 14,4 13 7 ENE 1009,3 -
15.06.2018 02:00:00 18,2 14,6 13 7 NE 1009,4 -
15.06.2018 01:00:00 18,6 15,0 9 5 NE 1009,7 -
15.06.2018 00:00:00 19,2 15,4 9 5 ENE 1009,6 -
14.06.2018 23:00:00 20,1 15,7 11 6 NNE 1009,3 -
14.06.2018 22:00:00 21,7 15,5 9 5 NNE 1008,7 -
14.06.2018 21:00:00 24,6 13,1 4 2 N 1008,0 -
14.06.2018 20:00:00 26,4 10,5 5 3 SW 1007,4 0,0
14.06.2018 19:00:00 27,3 11,3 4 2 WSW 1007,0 -
14.06.2018 18:00:00 27,5 9,8 9 5 SSW 1006,8 -
14.06.2018 17:00:00 26,7 10,4 8 4 SW 1007,0 -
14.06.2018 16:00:00 26,6 11,5 8 4 SW 1007,3 -
14.06.2018 15:00:00 27,4 11,0 5 3 WSW 1007,4 -
14.06.2018 14:00:00 26,2 10,7 9 5 ENE 1007,8 0,0
14.06.2018 13:00:00 26,2 11,1 13 7 NNE 1008,0 -
14.06.2018 12:00:00 24,6 11,8 13 7 NE 1007,8 -
14.06.2018 11:00:00 24,4 11,7 5 3 SE 1007,4 -
14.06.2018 10:00:00 24,4 13,8 4 2 NE 1007,0 -
14.06.2018 09:00:00 21,8 14,1 11 6 NNE 1006,8 -
14.06.2018 08:00:00 21,6 12,4 15 8 ENE 1006,6 -
14.06.2018 07:00:00 18,5 15,1 13 7 NNE 1006,1 -

tt = Température de l'air
td = dewpoint
ff = Vitesse du vent
dd = Direction du vent
ppp = reduced air pressure
rr = Quantités de précipitations

stations d'obs. à proximité